PDT,Max TemperatureF,Mean TemperatureF,Min TemperatureF,Max Dew PointF,MeanDew PointF,Min DewpointF,Max Humidity, Mean Humidity, Min Humidity, Max Sea Level PressureIn, Mean Sea Level PressureIn, Min Sea Level PressureIn, Max VisibilityMiles, Mean VisibilityMiles, Min VisibilityMiles, Max Wind SpeedMPH, Mean Wind SpeedMPH, Max Gust SpeedMPH,PrecipitationIn, CloudCover, Events, WindDirDegrees
2013-10-1,72,65,57,59,55,42,97,75,39,29.96,29.90,29.85,10,7,0,7,4,,0.00,2,Fog,192
2013-10-2,64,60,57,57,56,54,100,88,68,29.99,29.93,29.90,10,5,0,10,4,,0.00,8,Fog,234
2013-10-3,64,59,55,57,55,54,100,91,77,29.96,29.92,29.84,10,4,0,10,4,,0.01,6,Fog,198
2013-10-4,79,66,55,55,45,24,94,59,17,30.02,29.94,29.88,10,9,5,20,9,28,0.00,3,,99
2013-10-5,82,74,66,27,18,9,21,13,8,30.09,30.04,30.01,10,10,10,24,14,31,0.00,0,,63
2013-10-6,82,76,70,23,13,8,17,9,6,30.05,30.00,29.94,10,10,10,14,7,,0.00,0,,309
2013-10-7,75,66,57,55,32,7,89,37,8,29.96,29.93,29.90,10,8,0,10,8,,0.00,0,Fog,260
2013-10-8,63,58,53,54,50,20,100,84,19,29.96,29.90,29.83,10,6,0,10,6,,0.00,6,Fog,223
2013-10-9,59,52,48,52,47,43,97,82,62,29.84,29.77,29.74,10,8,0,22,11,33,0.28,7,Fog-Rain,252
2013-10-10,59,54,50,52,47,44,88,76,63,30.02,29.97,29.81,10,10,10,10,6,,0.00,3,,292
2013-10-11,62,58,53,52,51,35,96,84,41,30.07,30.00,29.96,10,7,0,15,7,,0.00,2,Fog,271
2013-10-12,66,58,51,54,49,39,94,79,46,29.99,29.95,29.90,10,6,0,17,7,,0.00,2,Fog,237
2013-10-13,62,56,51,52,51,50,100,86,68,30.04,29.98,29.92,10,7,0,8,4,,0.00,5,Fog,277
2013-10-14,77,64,52,52,45,25,97,65,18,30.04,29.99,29.91,10,7,0,9,5,,0.00,2,Fog,33
2013-10-15,79,72,66,37,27,21,29,20,12,29.94,29.90,29.86,10,10,10,14,7,,0.00,0,,55
2013-10-16,80,72,66,29,23,16,24,16,10,30.04,29.99,29.94,10,10,10,16,9,,0.00,0,,107
2013-10-17,77,70,64,38,28,22,32,22,15,30.01,29.97,29.93,10,10,10,13,8,,0.00,0,,283
2013-10-18,77,70,64,48,32,22,40,25,14,29.99,29.95,29.92,10,10,10,9,5,,0.00,0,,282
2013-10-19,80,74,69,45,29,20,32,20,11,29.99,29.96,29.94,10,10,10,12,6,,0.00,0,,294
2013-10-20,75,63,53,52,32,12,82,34,12,29.96,29.92,29.88,10,9,1,10,6,,0.00,0,,271
2013-10-21,70,60,50,52,43,7,96,64,9,30.00,29.95,29.91,10,6,0,7,2,,0.01,0,Fog,168
2013-10-22,66,58,51,54,50,18,100,84,16,30.01,29.97,29.92,10,5,0,13,3,,0.00,0,Fog,250
2013-10-23,57,54,51,52,50,48,100,85,72,29.98,29.95,29.92,10,8,0,13,5,,0.00,6,Fog,239
2013-10-24,61,56,53,52,51,49,94,84,75,30.07,30.02,29.96,10,7,1,12,5,,0.00,6,,254
2013-10-25,70,60,53,54,51,39,100,85,36,30.14,30.08,30.02,10,4,0,9,3,,0.00,5,Fog,240
2013-10-26,81,73,66,45,33,22,40,24,12,30.06,30.00,29.94,10,10,7,10,3,,0.00,0,,310
2013-10-27,71,62,53,55,50,36,96,75,28,29.94,29.87,29.81,10,5,0,18,10,22,0.04,3,Fog-Rain,253
2013-10-28,57,52,50,53,48,45,100,85,72,29.94,29.89,29.81,10,8,0,22,15,31,0.15,7,Fog-Rain,253
2013-10-29,57,54,50,49,47,46,94,82,67,30.02,29.97,29.92,10,9,2,14,8,,0.07,4,Rain,282
2013-10-30,62,56,50,52,48,40,94,81,49,30.07,30.03,30.00,10,8,1,13,7,,0.00,2,,275
2013-10-31,71,62,55,48,37,28,57,40,24,30.08,30.04,30.00,10,10,10,9,6,,0.00,0,,338